createdAt,value
2023-03-26T00:00:00.605Z,1
2023-03-26T00:01:44.266Z,1
2023-03-26T00:03:27.971Z,1
2023-03-26T00:05:11.668Z,0
2023-03-26T00:06:55.506Z,1
2023-03-26T00:08:39.084Z,1
2023-03-26T00:10:22.783Z,1
2023-03-26T00:12:06.481Z,2
2023-03-26T00:13:50.188Z,1
2023-03-26T00:15:33.924Z,1
2023-03-26T00:17:17.593Z,2
2023-03-26T00:20:44.988Z,1
2023-03-26T00:22:28.703Z,1
2023-03-26T00:24:12.405Z,2
2023-03-26T00:25:56.099Z,1
2023-03-26T00:27:39.815Z,1
2023-03-26T00:29:23.583Z,2
2023-03-26T00:31:07.268Z,1
2023-03-26T00:32:50.922Z,1
2023-03-26T00:34:34.614Z,1
2023-03-26T00:36:18.378Z,0
2023-03-26T00:38:02.081Z,2
2023-03-26T00:39:45.871Z,1
2023-03-26T00:41:29.554Z,1
2023-03-26T00:43:13.141Z,2
2023-03-26T00:44:56.891Z,1
2023-03-26T00:46:40.636Z,2
2023-03-26T00:48:24.245Z,1
2023-03-26T00:50:07.965Z,1
2023-03-26T00:51:51.767Z,1
2023-03-26T00:53:35.395Z,1
2023-03-26T00:55:19.120Z,1
2023-03-26T00:57:02.873Z,1
2023-03-26T00:58:46.475Z,1
2023-03-26T01:00:30.164Z,1
2023-03-26T01:02:13.900Z,1
2023-03-26T01:03:57.586Z,1
2023-03-26T01:05:41.381Z,1
2023-03-26T01:07:24.979Z,2
2023-03-26T01:09:08.750Z,2
2023-03-26T01:10:52.394Z,1
2023-03-26T01:12:36.138Z,1
2023-03-26T01:14:19.923Z,1
2023-03-26T01:19:30.891Z,2
2023-03-26T01:21:14.633Z,1
2023-03-26T01:22:58.421Z,1
2023-03-26T01:24:41.998Z,1
2023-03-26T01:26:25.698Z,1
2023-03-26T01:28:09.415Z,1
2023-03-26T01:29:53.184Z,1
2023-03-26T01:31:36.828Z,2
2023-03-26T01:33:20.536Z,0
2023-03-26T01:35:04.215Z,1
2023-03-26T01:36:47.943Z,1
2023-03-26T01:38:31.684Z,0
2023-03-26T01:40:15.331Z,1
2023-03-26T01:41:59.029Z,1
2023-03-26T01:43:42.761Z,1
2023-03-26T01:45:26.441Z,1
2023-03-26T01:47:10.147Z,2
2023-03-26T01:48:53.862Z,1
2023-03-26T01:50:37.565Z,2
2023-03-26T01:52:21.234Z,1
2023-03-26T01:54:04.946Z,1
2023-03-26T01:55:48.635Z,1
2023-03-26T01:57:32.337Z,1
2023-03-26T01:59:16.058Z,1
2023-03-26T02:00:59.779Z,1
2023-03-26T02:02:43.463Z,1
2023-03-26T02:04:27.172Z,1
2023-03-26T02:06:10.861Z,1
2023-03-26T02:07:54.570Z,2
2023-03-26T02:09:38.323Z,1
2023-03-26T02:11:21.971Z,1
2023-03-26T02:13:05.691Z,0
2023-03-26T02:14:49.426Z,1
2023-03-26T02:16:33.076Z,1
2023-03-26T02:18:16.768Z,2
2023-03-26T02:20:00.576Z,1
2023-03-26T02:21:44.226Z,1
2023-03-26T02:23:27.883Z,2
2023-03-26T02:25:11.592Z,2
2023-03-26T02:26:55.300Z,1
2023-03-26T02:28:38.989Z,1
2023-03-26T02:30:22.696Z,2
2023-03-26T02:32:06.404Z,1
2023-03-26T02:33:50.100Z,1
2023-03-26T02:35:33.803Z,1
2023-03-26T02:37:17.537Z,1
2023-03-26T02:39:01.212Z,1
2023-03-26T02:40:44.912Z,1
2023-03-26T02:42:28.631Z,1
2023-03-26T02:44:12.315Z,1
2023-03-26T02:45:56.016Z,1
2023-03-26T02:47:39.721Z,2
2023-03-26T02:49:23.416Z,1
2023-03-26T02:51:07.128Z,1
2023-03-26T02:52:50.838Z,1
2023-03-26T02:54:34.532Z,1
2023-03-26T02:56:18.241Z,0
2023-03-26T02:58:01.951Z,1
2023-03-26T02:59:45.637Z,2
2023-03-26T03:01:29.340Z,1
2023-03-26T03:03:13.046Z,1
2023-03-26T03:04:56.751Z,1
2023-03-26T03:06:40.467Z,1
2023-03-26T03:08:24.155Z,1
2023-03-26T03:10:07.901Z,1
2023-03-26T03:11:51.549Z,0
2023-03-26T03:13:35.266Z,2
2023-03-26T03:15:18.965Z,1
2023-03-26T03:17:02.793Z,1
2023-03-26T03:18:46.370Z,2
2023-03-26T03:20:30.059Z,1
2023-03-26T03:22:13.769Z,1
2023-03-26T03:23:57.475Z,0
2023-03-26T03:25:41.165Z,1
2023-03-26T03:27:24.879Z,1
2023-03-26T03:29:08.623Z,1
2023-03-26T03:30:52.277Z,2
2023-03-26T03:32:36.007Z,1
2023-03-26T03:34:19.693Z,1
2023-03-26T03:36:03.397Z,1
2023-03-26T03:37:47.092Z,1
2023-03-26T03:39:30.801Z,1
2023-03-26T03:41:14.504Z,1
2023-03-26T03:42:58.241Z,2
2023-03-26T03:44:41.906Z,0
2023-03-26T03:46:25.618Z,1
2023-03-26T03:48:09.317Z,1
2023-03-26T03:49:53.018Z,2
2023-03-26T03:51:36.723Z,1
2023-03-26T03:53:20.427Z,1
2023-03-26T03:55:04.123Z,1
2023-03-26T03:56:47.823Z,1
2023-03-26T03:58:31.525Z,1
2023-03-26T04:00:15.230Z,1
2023-03-26T04:01:58.935Z,1
2023-03-26T04:03:42.641Z,1
2023-03-26T04:05:26.336Z,1
2023-03-26T04:07:10.084Z,2
2023-03-26T04:08:53.744Z,1
2023-03-26T04:10:37.448Z,2
2023-03-26T04:12:21.149Z,1
2023-03-26T04:14:04.852Z,1
2023-03-26T04:15:48.556Z,1
2023-03-26T04:17:32.255Z,1
2023-03-26T04:19:15.969Z,1
2023-03-26T04:20:59.663Z,1
2023-03-26T04:22:43.359Z,1
2023-03-26T04:24:27.058Z,2
2023-03-26T04:26:10.774Z,1
2023-03-26T04:27:54.493Z,1
2023-03-26T04:29:38.174Z,2
2023-03-26T04:31:21.877Z,1
2023-03-26T04:33:05.575Z,1
2023-03-26T04:34:49.288Z,2
2023-03-26T04:36:32.985Z,1
2023-03-26T04:38:16.717Z,1
2023-03-26T04:40:00.396Z,0
2023-03-26T04:41:44.092Z,1
2023-03-26T04:43:27.835Z,1
2023-03-26T04:45:11.489Z,1
2023-03-26T04:46:55.245Z,1
2023-03-26T04:48:38.907Z,1
2023-03-26T04:50:22.608Z,1
2023-03-26T04:52:06.317Z,2
2023-03-26T04:53:50.015Z,2
2023-03-26T04:55:33.709Z,2
2023-03-26T04:57:17.417Z,2
2023-03-26T04:59:01.124Z,2
2023-03-26T05:00:44.833Z,2
2023-03-26T05:02:28.517Z,3
2023-03-26T05:04:12.212Z,3
2023-03-26T05:05:55.930Z,3
2023-03-26T05:07:39.656Z,3
2023-03-26T05:09:23.335Z,4
2023-03-26T05:11:07.169Z,5
2023-03-26T05:12:50.755Z,5
2023-03-26T05:14:34.437Z,5
2023-03-26T05:16:18.168Z,6
2023-03-26T05:18:01.847Z,7
2023-03-26T05:19:45.548Z,8
2023-03-26T05:21:29.258Z,9
2023-03-26T05:23:12.957Z,12
2023-03-26T05:24:56.659Z,13
2023-03-26T05:26:40.359Z,15
2023-03-26T05:28:24.051Z,17
2023-03-26T05:30:07.767Z,21
2023-03-26T05:31:51.458Z,24
2023-03-26T05:33:35.172Z,25
2023-03-26T05:35:18.879Z,29
2023-03-26T05:37:02.561Z,32
2023-03-26T05:38:46.280Z,36
2023-03-26T05:40:29.992Z,37
2023-03-26T05:42:13.687Z,38
2023-03-26T05:43:57.398Z,35
2023-03-26T05:45:41.113Z,34
2023-03-26T05:47:24.788Z,35
2023-03-26T05:49:08.496Z,36
2023-03-26T05:50:52.189Z,37
2023-03-26T05:52:35.896Z,41
2023-03-26T05:54:19.606Z,45
2023-03-26T05:56:03.298Z,49
2023-03-26T05:57:46.995Z,54
2023-03-26T05:59:30.715Z,60
2023-03-26T06:01:14.409Z,68
2023-03-26T06:02:58.112Z,70
2023-03-26T06:04:41.814Z,71
2023-03-26T06:06:25.512Z,73
2023-03-26T06:08:09.218Z,75
2023-03-26T06:09:52.917Z,79
2023-03-26T06:11:36.627Z,82
2023-03-26T06:13:20.325Z,89
2023-03-26T06:15:04.019Z,98
2023-03-26T06:16:47.730Z,109
2023-03-26T06:18:31.429Z,121
2023-03-26T06:20:15.152Z,139
2023-03-26T06:21:58.843Z,161
2023-03-26T06:23:42.565Z,181
2023-03-26T06:25:26.250Z,204
2023-03-26T06:27:09.947Z,212
2023-03-26T06:28:53.643Z,200
2023-03-26T06:30:37.346Z,191
2023-03-26T06:32:21.061Z,199
2023-03-26T06:34:04.809Z,204
2023-03-26T06:35:48.457Z,202
2023-03-26T06:37:32.162Z,191
2023-03-26T06:39:15.887Z,185
2023-03-26T06:40:59.574Z,182
2023-03-26T06:42:43.254Z,193
2023-03-26T06:44:26.963Z,201
2023-03-26T06:46:10.733Z,215
2023-03-26T06:47:54.372Z,226
2023-03-26T06:49:38.104Z,221
2023-03-26T06:51:21.776Z,215
2023-03-26T06:53:05.509Z,220
2023-03-26T06:54:49.193Z,234
2023-03-26T06:56:32.890Z,237
2023-03-26T06:58:16.623Z,217
2023-03-26T07:00:00.331Z,221
2023-03-26T07:01:43.991Z,232
2023-03-26T07:03:27.829Z,258
2023-03-26T07:05:11.505Z,271
2023-03-26T07:06:55.204Z,283
2023-03-26T07:08:38.816Z,296
2023-03-26T07:10:22.595Z,298
2023-03-26T07:12:06.273Z,293
2023-03-26T07:13:49.922Z,304
2023-03-26T07:15:33.744Z,291
2023-03-26T07:17:17.329Z,273
2023-03-26T07:19:01.047Z,241
2023-03-26T07:20:44.720Z,206
2023-03-26T07:22:28.448Z,188
2023-03-26T07:24:12.136Z,194
2023-03-26T07:25:55.868Z,216
2023-03-26T07:27:39.579Z,206
2023-03-26T07:29:23.238Z,196
2023-03-26T07:31:07.063Z,208
2023-03-26T07:32:50.683Z,211
2023-03-26T07:34:34.365Z,191
2023-03-26T07:36:18.090Z,197
2023-03-26T07:38:01.755Z,250
2023-03-26T07:39:45.464Z,226
2023-03-26T07:41:29.158Z,201
2023-03-26T07:43:12.862Z,215
2023-03-26T07:44:56.608Z,210
2023-03-26T07:46:40.274Z,225
2023-03-26T07:48:23.971Z,255
2023-03-26T07:50:07.665Z,266
2023-03-26T07:51:51.394Z,266
2023-03-26T07:53:35.156Z,271
2023-03-26T07:55:18.804Z,287
2023-03-26T07:57:02.494Z,325
2023-03-26T07:58:46.197Z,324
2023-03-26T08:00:29.886Z,303
2023-03-26T08:02:13.583Z,282
2023-03-26T08:03:57.336Z,297
2023-03-26T08:05:41.002Z,300
2023-03-26T08:07:24.691Z,293
2023-03-26T08:09:08.401Z,286
2023-03-26T08:10:52.088Z,258
2023-03-26T08:12:35.800Z,238
2023-03-26T08:14:19.502Z,234
2023-03-26T08:16:03.335Z,248
2023-03-26T08:17:46.918Z,314
2023-03-26T08:19:30.622Z,328
2023-03-26T08:21:14.312Z,327
2023-03-26T08:22:58.162Z,331
2023-03-26T08:24:41.695Z,328
2023-03-26T08:26:25.397Z,373
2023-03-26T08:28:09.236Z,376
2023-03-26T08:29:52.916Z,349
2023-03-26T08:31:36.516Z,375
2023-03-26T08:33:20.211Z,427
2023-03-26T08:35:03.910Z,453
2023-03-26T08:36:47.612Z,528
2023-03-26T08:38:31.439Z,644
2023-03-26T08:40:15.123Z,738
2023-03-26T08:41:58.788Z,737
2023-03-26T08:43:42.460Z,738
2023-03-26T08:45:26.130Z,715
2023-03-26T08:47:09.834Z,727
2023-03-26T08:48:53.596Z,739
2023-03-26T08:50:37.260Z,739
2023-03-26T08:52:20.955Z,738
2023-03-26T08:54:04.655Z,739
2023-03-26T08:55:48.355Z,739
2023-03-26T08:57:32.059Z,738
2023-03-26T08:59:15.763Z,738
2023-03-26T09:00:59.577Z,730
2023-03-26T09:02:43.350Z,739
2023-03-26T09:04:26.953Z,738
2023-03-26T09:06:10.635Z,738
2023-03-26T09:07:54.358Z,739
2023-03-26T09:09:38.084Z,739
2023-03-26T09:11:21.687Z,739
2023-03-26T09:13:05.375Z,738
2023-03-26T09:14:49.107Z,729
2023-03-26T09:16:32.807Z,739
2023-03-26T09:18:16.524Z,739
2023-03-26T09:20:00.212Z,738
2023-03-26T09:21:44.011Z,739
2023-03-26T09:23:27.697Z,740
2023-03-26T09:25:11.297Z,738
2023-03-26T09:26:55.009Z,738
2023-03-26T09:28:38.787Z,737
2023-03-26T09:30:22.466Z,739
2023-03-26T09:32:06.114Z,739
2023-03-26T09:33:49.908Z,738
2023-03-26T09:35:33.528Z,738
2023-03-26T09:37:17.245Z,738
2023-03-26T09:39:00.922Z,739
2023-03-26T09:40:44.642Z,739
2023-03-26T09:42:28.331Z,739
2023-03-26T09:44:12.037Z,738
2023-03-26T09:45:55.734Z,738
2023-03-26T09:47:39.437Z,738
2023-03-26T09:49:23.195Z,738
2023-03-26T09:51:06.964Z,739
2023-03-26T09:52:50.657Z,739
2023-03-26T09:54:34.283Z,738
2023-03-26T09:56:17.953Z,738
2023-03-26T09:58:01.665Z,738
2023-03-26T09:59:45.357Z,739
2023-03-26T10:03:12.775Z,739
2023-03-26T10:04:56.469Z,738
2023-03-26T10:06:40.197Z,740
2023-03-26T10:08:23.872Z,739
2023-03-26T10:11:51.273Z,738
2023-03-26T10:13:34.983Z,739
2023-03-26T10:15:18.683Z,730
2023-03-26T10:18:46.087Z,738
2023-03-26T10:20:29.789Z,740
2023-03-26T10:22:13.482Z,740
2023-03-26T10:23:57.183Z,739
2023-03-26T10:25:41.038Z,738
2023-03-26T10:27:24.613Z,738
2023-03-26T10:29:08.296Z,737
2023-03-26T10:30:52.010Z,739
2023-03-26T10:32:35.708Z,738
2023-03-26T10:34:19.405Z,738
2023-03-26T10:36:03.108Z,738
2023-03-26T10:37:46.826Z,739
2023-03-26T10:39:30.504Z,739
2023-03-26T10:41:14.212Z,738
2023-03-26T10:42:57.979Z,739
2023-03-26T10:44:41.615Z,739
2023-03-26T10:46:25.325Z,738
2023-03-26T10:48:09.018Z,738
2023-03-26T10:49:52.725Z,740
2023-03-26T10:51:36.433Z,739
2023-03-26T10:53:20.126Z,739
2023-03-26T10:55:03.820Z,738
2023-03-26T10:56:47.536Z,739
2023-03-26T10:58:31.233Z,740
2023-03-26T11:00:14.927Z,739
2023-03-26T11:01:58.646Z,735
2023-03-26T11:03:42.339Z,738
2023-03-26T11:05:26.064Z,739
2023-03-26T11:07:09.746Z,740
2023-03-26T11:08:53.465Z,738
2023-03-26T11:10:37.159Z,739
2023-03-26T11:12:20.857Z,739
2023-03-26T11:14:04.559Z,738
2023-03-26T11:15:48.377Z,738
2023-03-26T11:17:31.971Z,738
2023-03-26T11:19:15.681Z,739
2023-03-26T11:20:59.370Z,740
2023-03-26T11:22:43.078Z,739
2023-03-26T11:24:26.812Z,738
2023-03-26T11:26:10.514Z,738
2023-03-26T11:27:54.324Z,740
2023-03-26T11:29:38.069Z,740
2023-03-26T11:31:21.669Z,739
2023-03-26T11:33:05.469Z,738
2023-03-26T11:34:48.993Z,736
2023-03-26T11:36:32.704Z,739
2023-03-26T11:38:16.407Z,739
2023-03-26T11:40:00.101Z,739
2023-03-26T11:41:43.812Z,739
2023-03-26T11:43:27.514Z,740
2023-03-26T11:45:11.205Z,738
2023-03-26T11:46:54.910Z,738
2023-03-26T11:48:38.624Z,735
2023-03-26T11:50:22.304Z,740
2023-03-26T11:52:06.031Z,739
2023-03-26T11:53:49.726Z,737
2023-03-26T11:55:33.420Z,739
2023-03-26T11:57:17.136Z,740
2023-03-26T11:59:00.822Z,740
2023-03-26T12:00:44.532Z,738
2023-03-26T12:02:28.230Z,739
2023-03-26T12:04:11.922Z,740
2023-03-26T12:05:55.640Z,740
2023-03-26T12:07:39.327Z,739
2023-03-26T12:09:23.029Z,739
2023-03-26T12:11:06.890Z,739
2023-03-26T12:12:50.432Z,739
2023-03-26T12:14:34.141Z,739
2023-03-26T12:16:17.846Z,739
2023-03-26T12:18:01.542Z,740
2023-03-26T12:19:45.246Z,740
2023-03-26T12:21:29.006Z,739
2023-03-26T12:23:12.649Z,739
2023-03-26T12:24:56.352Z,740
2023-03-26T12:26:40.052Z,740
2023-03-26T12:28:23.752Z,739
2023-03-26T12:30:07.459Z,738
2023-03-26T12:33:34.902Z,740
2023-03-26T12:35:18.581Z,739
2023-03-26T12:37:02.276Z,739
2023-03-26T12:38:46.004Z,740
2023-03-26T12:40:29.693Z,740
2023-03-26T12:42:13.449Z,739
2023-03-26T12:43:57.106Z,737
2023-03-26T12:45:40.783Z,739
2023-03-26T12:47:24.495Z,740
2023-03-26T12:49:08.177Z,740
2023-03-26T12:50:51.914Z,738
2023-03-26T12:52:35.590Z,739
2023-03-26T12:54:19.289Z,740
2023-03-26T12:56:03.027Z,740
2023-03-26T12:57:46.792Z,738
2023-03-26T12:59:30.574Z,740
2023-03-26T13:01:14.320Z,739
2023-03-26T13:02:57.859Z,741
2023-03-26T13:04:41.507Z,739
2023-03-26T13:06:25.225Z,739
2023-03-26T13:08:08.910Z,739
2023-03-26T13:09:52.614Z,740
2023-03-26T13:11:36.348Z,739
2023-03-26T13:13:20.045Z,739
2023-03-26T13:15:03.740Z,740
2023-03-26T13:16:47.427Z,740
2023-03-26T13:18:31.152Z,739
2023-03-26T13:20:14.852Z,738
2023-03-26T13:21:58.653Z,739
2023-03-26T13:23:42.236Z,740
2023-03-26T13:25:25.943Z,740
2023-03-26T13:27:09.646Z,739
2023-03-26T13:28:53.390Z,739
2023-03-26T13:30:37.071Z,739
2023-03-26T13:32:20.753Z,739
2023-03-26T13:35:48.175Z,739
2023-03-26T13:37:31.871Z,740
2023-03-26T13:39:15.566Z,740
2023-03-26T13:40:59.265Z,739
2023-03-26T13:42:42.978Z,739
2023-03-26T13:44:26.697Z,739
2023-03-26T13:46:10.376Z,739
2023-03-26T13:47:54.098Z,738
2023-03-26T13:49:37.776Z,739
2023-03-26T13:51:21.471Z,739
2023-03-26T13:53:05.188Z,734
2023-03-26T13:54:48.889Z,739
2023-03-26T13:56:32.588Z,739
2023-03-26T13:58:16.299Z,738
2023-03-26T14:00:00.001Z,740
2023-03-26T14:01:43.699Z,740
2023-03-26T14:03:27.403Z,739
2023-03-26T14:05:11.112Z,740
2023-03-26T14:06:54.828Z,718
2023-03-26T14:08:38.501Z,634
2023-03-26T14:10:22.204Z,537
2023-03-26T14:12:05.911Z,450
2023-03-26T14:13:49.631Z,370
2023-03-26T14:15:33.391Z,330
2023-03-26T14:17:17.007Z,302
2023-03-26T14:19:00.725Z,280
2023-03-26T14:20:44.417Z,270
2023-03-26T14:22:28.117Z,250
2023-03-26T14:24:11.827Z,228
2023-03-26T14:25:55.541Z,214
2023-03-26T14:27:39.228Z,210
2023-03-26T14:29:22.957Z,183
2023-03-26T14:31:06.628Z,149
2023-03-26T14:32:50.343Z,134
2023-03-26T14:34:34.038Z,159
2023-03-26T14:36:17.738Z,196
2023-03-26T14:38:01.455Z,202
2023-03-26T14:39:45.149Z,241
2023-03-26T14:41:28.854Z,283
2023-03-26T14:43:12.546Z,342
2023-03-26T14:44:56.247Z,383
2023-03-26T14:46:39.983Z,455
2023-03-26T14:48:23.660Z,504
2023-03-26T14:50:07.365Z,574
2023-03-26T14:51:51.060Z,618
2023-03-26T14:53:34.766Z,681
2023-03-26T14:55:18.461Z,689
2023-03-26T14:57:02.173Z,669
2023-03-26T14:58:45.864Z,640
2023-03-26T15:00:29.601Z,607
2023-03-26T15:02:13.286Z,570
2023-03-26T15:03:56.969Z,546
2023-03-26T15:05:40.698Z,516
2023-03-26T15:07:24.382Z,507
2023-03-26T15:09:08.144Z,485
2023-03-26T15:10:51.775Z,462
2023-03-26T15:12:35.485Z,449
2023-03-26T15:14:19.196Z,433
2023-03-26T15:16:02.896Z,401
2023-03-26T15:17:46.598Z,369
2023-03-26T15:19:30.299Z,339
2023-03-26T15:21:14.005Z,302
2023-03-26T15:22:57.697Z,282
2023-03-26T15:24:41.423Z,290
2023-03-26T15:26:25.229Z,293
2023-03-26T15:28:08.811Z,297
2023-03-26T15:29:52.513Z,304
2023-03-26T15:31:36.235Z,309
2023-03-26T15:33:19.916Z,313
2023-03-26T15:35:03.647Z,319
2023-03-26T15:36:47.330Z,318
2023-03-26T15:38:31.035Z,311
2023-03-26T15:40:14.800Z,299
2023-03-26T15:41:58.449Z,286
2023-03-26T15:43:42.138Z,278
2023-03-26T15:45:25.839Z,259
2023-03-26T15:47:09.537Z,247
2023-03-26T15:48:53.250Z,251
2023-03-26T15:50:36.941Z,258
2023-03-26T15:52:20.653Z,262
2023-03-26T15:54:04.356Z,291
2023-03-26T15:55:48.059Z,349
2023-03-26T15:57:31.761Z,452
2023-03-26T15:59:15.533Z,529
2023-03-26T16:00:59.222Z,593
2023-03-26T16:02:42.866Z,640
2023-03-26T16:04:26.568Z,707
2023-03-26T16:06:10.268Z,739
2023-03-26T16:07:53.972Z,738
2023-03-26T16:09:37.667Z,738
2023-03-26T16:11:21.374Z,737
2023-03-26T16:13:05.079Z,738
2023-03-26T16:16:32.526Z,739
2023-03-26T16:18:16.197Z,738
2023-03-26T16:19:59.886Z,740
2023-03-26T16:21:43.659Z,739
2023-03-26T16:23:27.297Z,739
2023-03-26T16:25:11.000Z,738
2023-03-26T16:26:54.706Z,735
2023-03-26T16:28:38.413Z,670
2023-03-26T16:30:22.107Z,540
2023-03-26T16:32:05.803Z,486
2023-03-26T16:33:49.514Z,434
2023-03-26T16:35:33.217Z,372
2023-03-26T16:37:16.910Z,336
2023-03-26T16:39:00.617Z,329
2023-03-26T16:40:44.362Z,321
2023-03-26T16:42:28.023Z,307
2023-03-26T16:44:11.756Z,312
2023-03-26T16:45:55.425Z,322
2023-03-26T16:47:39.138Z,319
2023-03-26T16:49:22.842Z,315
2023-03-26T16:51:06.544Z,337
2023-03-26T16:52:50.240Z,336
2023-03-26T16:54:33.947Z,352
2023-03-26T16:56:17.646Z,342
2023-03-26T16:58:01.361Z,708
2023-03-26T16:59:45.065Z,739
2023-03-26T17:01:28.753Z,738
2023-03-26T17:03:12.459Z,262
2023-03-26T17:04:56.145Z,227
2023-03-26T17:06:39.878Z,201
2023-03-26T17:08:23.567Z,185
2023-03-26T17:10:07.344Z,180
2023-03-26T17:11:50.961Z,177
2023-03-26T17:13:34.664Z,169
2023-03-26T17:15:18.368Z,162
2023-03-26T17:17:02.078Z,139
2023-03-26T17:18:45.789Z,129
2023-03-26T17:20:29.480Z,126
2023-03-26T17:22:13.174Z,116
2023-03-26T17:23:56.879Z,106
2023-03-26T17:25:40.586Z,100
2023-03-26T17:27:24.294Z,90
2023-03-26T17:29:07.984Z,80
2023-03-26T17:30:51.779Z,72
2023-03-26T17:32:35.402Z,66
2023-03-26T17:34:19.096Z,59
2023-03-26T17:36:02.805Z,52
2023-03-26T17:37:46.501Z,46
2023-03-26T17:39:30.221Z,39
2023-03-26T17:41:13.916Z,34
2023-03-26T17:42:57.607Z,29
2023-03-26T17:44:41.308Z,26
2023-03-26T17:46:25.044Z,34
2023-03-26T17:48:08.722Z,31
2023-03-26T17:49:52.433Z,18
2023-03-26T17:51:36.118Z,18
2023-03-26T17:53:19.828Z,16
2023-03-26T17:55:03.531Z,13
2023-03-26T17:56:47.231Z,11
2023-03-26T17:58:30.933Z,10
2023-03-26T18:00:14.640Z,9
2023-03-26T18:01:58.339Z,7
2023-03-26T18:03:42.046Z,6
2023-03-26T18:05:25.747Z,5
2023-03-26T18:07:09.440Z,5
2023-03-26T18:08:53.169Z,6
2023-03-26T18:10:36.868Z,5
2023-03-26T18:12:20.558Z,5
2023-03-26T18:14:04.323Z,5
2023-03-26T18:15:47.966Z,5
2023-03-26T18:17:31.671Z,5
2023-03-26T18:19:15.362Z,3
2023-03-26T18:20:59.077Z,4
2023-03-26T18:22:42.763Z,5
2023-03-26T18:24:26.474Z,4
2023-03-26T18:26:10.176Z,4
2023-03-26T18:27:53.881Z,4
2023-03-26T18:29:37.581Z,5
2023-03-26T18:31:21.302Z,5
2023-03-26T18:33:05.026Z,4
2023-03-26T18:34:48.687Z,4
2023-03-26T18:36:32.386Z,5
2023-03-26T18:38:16.084Z,6
2023-03-26T18:39:59.780Z,5
2023-03-26T18:41:43.485Z,5
2023-03-26T18:43:27.192Z,5
2023-03-26T18:45:10.903Z,6
2023-03-26T18:46:54.599Z,6
2023-03-26T18:48:38.340Z,6
2023-03-26T18:50:22.009Z,5
2023-03-26T18:52:05.764Z,5
2023-03-26T18:53:49.410Z,4
2023-03-26T18:55:33.119Z,4
2023-03-26T18:57:16.818Z,4
2023-03-26T18:59:00.540Z,4
2023-03-26T19:00:44.216Z,5
2023-03-26T19:02:27.924Z,4
2023-03-26T19:04:11.640Z,3
2023-03-26T19:05:55.338Z,3
2023-03-26T19:07:39.033Z,2
2023-03-26T19:09:22.730Z,3
2023-03-26T19:11:06.450Z,1
2023-03-26T19:12:50.144Z,2
2023-03-26T19:14:33.924Z,2
2023-03-26T19:16:17.545Z,3
2023-03-26T19:18:01.258Z,2
2023-03-26T19:19:44.980Z,2
2023-03-26T19:21:28.657Z,2
2023-03-26T19:23:12.351Z,2
2023-03-26T19:24:56.061Z,2
2023-03-26T19:26:39.761Z,2
2023-03-26T19:28:23.462Z,3
2023-03-26T19:30:07.186Z,2
2023-03-26T19:31:50.867Z,2
2023-03-26T19:33:34.565Z,2
2023-03-26T19:35:18.271Z,3
2023-03-26T19:37:01.979Z,2
2023-03-26T19:38:45.885Z,7
2023-03-26T19:40:29.574Z,8
2023-03-26T19:42:13.231Z,8
2023-03-26T19:43:56.963Z,7
2023-03-26T19:45:40.502Z,2
2023-03-26T19:47:24.321Z,2
2023-03-26T19:49:08.037Z,2
2023-03-26T19:50:51.763Z,2
2023-03-26T19:52:35.431Z,2
2023-03-26T19:54:19.173Z,2
2023-03-26T19:56:02.875Z,1
2023-03-26T19:57:46.659Z,2
2023-03-26T19:59:30.189Z,2
2023-03-26T20:01:13.938Z,2
2023-03-26T20:02:57.700Z,2
2023-03-26T20:04:41.371Z,2
2023-03-26T20:06:24.933Z,3
2023-03-26T20:08:08.817Z,8
2023-03-26T20:09:52.336Z,8
2023-03-26T20:11:36.231Z,8
2023-03-26T20:13:19.808Z,8
2023-03-26T20:15:03.649Z,7
2023-03-26T20:16:47.325Z,8
2023-03-26T20:18:31.001Z,3
2023-03-26T20:20:14.549Z,1
2023-03-26T20:21:58.339Z,2
2023-03-26T20:23:42.049Z,2
2023-03-26T20:25:25.833Z,2
2023-03-26T20:27:09.549Z,2
2023-03-26T20:28:53.207Z,2
2023-03-26T20:30:37.080Z,2
2023-03-26T20:32:20.620Z,8
2023-03-26T20:34:04.334Z,8
2023-03-26T20:35:48.033Z,8
2023-03-26T20:37:31.636Z,3
2023-03-26T20:39:15.356Z,3
2023-03-26T20:40:58.983Z,2
2023-03-26T20:42:42.799Z,2
2023-03-26T20:44:26.399Z,2
2023-03-26T20:46:10.093Z,2
2023-03-26T20:47:53.788Z,2
2023-03-26T20:49:37.489Z,3
2023-03-26T20:51:21.304Z,2
2023-03-26T20:53:04.904Z,2
2023-03-26T20:54:48.747Z,2
2023-03-26T20:56:32.376Z,2
2023-03-26T20:58:16.017Z,2
2023-03-26T20:59:59.735Z,2
2023-03-26T21:01:43.468Z,2
2023-03-26T21:03:27.102Z,2
2023-03-26T21:05:10.820Z,3
2023-03-26T21:06:54.557Z,2
2023-03-26T21:08:38.217Z,2
2023-03-26T21:10:21.910Z,3
2023-03-26T21:12:05.613Z,2
2023-03-26T21:13:49.344Z,8
2023-03-26T21:15:33.019Z,8
2023-03-26T21:17:16.766Z,8
2023-03-26T21:19:00.471Z,8
2023-03-26T21:20:44.123Z,3
2023-03-26T21:22:27.908Z,2
2023-03-26T21:24:11.539Z,2
2023-03-26T21:25:55.238Z,2
2023-03-26T21:27:38.952Z,2
2023-03-26T21:29:22.632Z,3
2023-03-26T21:31:06.345Z,2
2023-03-26T21:32:50.060Z,3
2023-03-26T21:34:33.896Z,2
2023-03-26T21:36:17.459Z,2
2023-03-26T21:38:01.249Z,2
2023-03-26T21:39:44.866Z,2
2023-03-26T21:41:28.562Z,3
2023-03-26T21:43:12.269Z,2
2023-03-26T21:44:55.981Z,3
2023-03-26T21:46:39.684Z,2
2023-03-26T21:48:23.371Z,2
2023-03-26T21:50:07.067Z,4
2023-03-26T21:51:50.765Z,7
2023-03-26T21:53:34.482Z,8
2023-03-26T21:55:18.178Z,8
2023-03-26T21:57:01.878Z,8
2023-03-26T21:58:45.589Z,3
2023-03-26T22:00:29.354Z,2
2023-03-26T22:02:12.991Z,2
2023-03-26T22:03:56.740Z,2
2023-03-26T22:05:40.385Z,2
2023-03-26T22:07:24.113Z,2
2023-03-26T22:09:07.802Z,2
2023-03-26T22:10:51.512Z,2
2023-03-26T22:12:35.208Z,3
2023-03-26T22:14:18.917Z,3
2023-03-26T22:16:02.611Z,2
2023-03-26T22:19:30.027Z,2
2023-03-26T22:21:13.772Z,2
2023-03-26T22:22:57.435Z,2
2023-03-26T22:24:41.129Z,2
2023-03-26T22:26:24.831Z,2
2023-03-26T22:28:08.532Z,2
2023-03-26T22:29:52.231Z,2
2023-03-26T22:31:35.940Z,2
2023-03-26T22:33:19.645Z,8
2023-03-26T22:35:03.345Z,9
2023-03-26T22:36:47.071Z,8
2023-03-26T22:38:30.748Z,2
2023-03-26T22:40:14.453Z,2
2023-03-26T22:41:58.159Z,3
2023-03-26T22:43:41.850Z,2
2023-03-26T22:45:25.552Z,2
2023-03-26T22:47:09.258Z,2
2023-03-26T22:48:53.025Z,2
2023-03-26T22:50:36.681Z,2
2023-03-26T22:52:20.368Z,2
2023-03-26T22:54:04.067Z,2
2023-03-26T22:55:47.775Z,2
2023-03-26T22:57:31.479Z,2
2023-03-26T22:59:15.182Z,3
2023-03-26T23:00:58.890Z,2
2023-03-26T23:02:42.572Z,2
2023-03-26T23:04:26.305Z,2
2023-03-26T23:06:09.996Z,8
2023-03-26T23:07:53.690Z,8
2023-03-26T23:09:37.395Z,8
2023-03-26T23:11:21.092Z,2
2023-03-26T23:13:04.793Z,2
2023-03-26T23:14:48.508Z,2
2023-03-26T23:16:32.207Z,2
2023-03-26T23:18:15.904Z,2
2023-03-26T23:19:59.668Z,2
2023-03-26T23:21:43.305Z,2
2023-03-26T23:23:27.012Z,2
2023-03-26T23:25:10.723Z,2
2023-03-26T23:26:54.426Z,1
2023-03-26T23:28:38.126Z,2
2023-03-26T23:30:21.821Z,2
2023-03-26T23:32:05.538Z,2
2023-03-26T23:33:49.242Z,2
2023-03-26T23:35:32.943Z,3
2023-03-26T23:37:16.635Z,3
2023-03-26T23:39:00.345Z,2
2023-03-26T23:40:44.033Z,2
2023-03-26T23:42:27.755Z,7
2023-03-26T23:44:11.505Z,8
2023-03-26T23:45:55.151Z,9
2023-03-26T23:47:38.851Z,8
2023-03-26T23:49:22.554Z,3
2023-03-26T23:51:06.314Z,2
2023-03-26T23:52:49.991Z,2
2023-03-26T23:54:33.666Z,2
2023-03-26T23:56:17.372Z,3
2023-03-26T23:58:01.080Z,2
2023-03-26T23:59:44.770Z,3
